sensor_id;sensor_type;location;lat;lon;timestamp;pressure;altitude;pressure_sealevel;temperature;humidity
12077;BME280;12420;42.676;23.262;2024-03-07T00:02:06;94364.81;;;9.22;100.00
12077;BME280;12420;42.676;23.262;2024-03-07T00:04:33;94364.97;;;9.29;100.00
12077;BME280;12420;42.676;23.262;2024-03-07T00:07:01;94362.72;;;9.28;100.00
12077;BME280;12420;42.676;23.262;2024-03-07T00:09:29;94362.94;;;9.30;100.00
12077;BME280;12420;42.676;23.262;2024-03-07T00:11:55;94361.09;;;9.19;100.00
12077;BME280;12420;42.676;23.262;2024-03-07T00:14:22;94352.66;;;9.11;100.00
12077;BME280;12420;42.676;23.262;2024-03-07T00:16:52;94358.13;;;8.98;100.00
12077;BME280;12420;42.676;23.262;2024-03-07T00:19:20;94355.00;;;8.88;100.00
12077;BME280;12420;42.676;23.262;2024-03-07T00:21:51;94342.75;;;8.84;100.00
12077;BME280;12420;42.676;23.262;2024-03-07T00:24:17;94348.94;;;8.90;100.00
12077;BME280;12420;42.676;23.262;2024-03-07T00:26:44;94342.84;;;8.78;100.00
12077;BME280;12420;42.676;23.262;2024-03-07T00:29:11;94346.66;;;8.75;100.00
12077;BME280;12420;42.676;23.262;2024-03-07T00:31:38;94334.41;;;8.71;100.00
12077;BME280;12420;42.676;23.262;2024-03-07T00:34:05;94344.88;;;8.78;100.00
12077;BME280;12420;42.676;23.262;2024-03-07T00:36:33;94346.28;;;8.65;100.00
12077;BME280;12420;42.676;23.262;2024-03-07T00:39:00;94343.66;;;8.73;100.00
12077;BME280;12420;42.676;23.262;2024-03-07T00:41:27;94348.41;;;8.73;100.00
12077;BME280;12420;42.676;23.262;2024-03-07T00:43:54;94339.63;;;8.74;100.00
12077;BME280;12420;42.676;23.262;2024-03-07T00:46:21;94343.06;;;8.80;100.00
12077;BME280;12420;42.676;23.262;2024-03-07T00:48:48;94343.91;;;8.75;100.00
12077;BME280;12420;42.676;23.262;2024-03-07T00:51:15;94343.50;;;8.84;100.00
12077;BME280;12420;42.676;23.262;2024-03-07T00:53:43;94320.09;;;8.72;100.00
12077;BME280;12420;42.676;23.262;2024-03-07T00:56:10;94328.59;;;8.93;100.00
12077;BME280;12420;42.676;23.262;2024-03-07T00:58:37;94331.03;;;8.97;100.00
12077;BME280;12420;42.676;23.262;2024-03-07T01:01:04;94323.72;;;8.99;100.00
12077;BME280;12420;42.676;23.262;2024-03-07T01:03:30;94326.94;;;9.03;100.00
12077;BME280;12420;42.676;23.262;2024-03-07T01:05:57;94318.88;;;9.05;100.00
12077;BME280;12420;42.676;23.262;2024-03-07T01:08:24;94297.47;;;8.93;100.00
12077;BME280;12420;42.676;23.262;2024-03-07T01:10:52;94312.75;;;9.12;100.00
12077;BME280;12420;42.676;23.262;2024-03-07T01:13:19;94314.25;;;9.13;100.00
12077;BME280;12420;42.676;23.262;2024-03-07T01:15:48;94314.44;;;9.16;100.00
12077;BME280;12420;42.676;23.262;2024-03-07T01:18:15;94324.22;;;9.17;100.00
12077;BME280;12420;42.676;23.262;2024-03-07T01:20:42;94312.47;;;8.97;100.00
12077;BME280;12420;42.676;23.262;2024-03-07T01:23:09;94316.94;;;9.00;100.00
12077;BME280;12420;42.676;23.262;2024-03-07T01:25:36;94313.84;;;8.90;100.00
12077;BME280;12420;42.676;23.262;2024-03-07T01:28:04;94314.81;;;8.93;100.00
12077;BME280;12420;42.676;23.262;2024-03-07T01:30:31;94306.88;;;8.84;100.00
12077;BME280;12420;42.676;23.262;2024-03-07T01:32:58;94301.91;;;8.63;100.00
12077;BME280;12420;42.676;23.262;2024-03-07T01:35:25;94292.91;;;8.38;100.00
12077;BME280;12420;42.676;23.262;2024-03-07T01:37:52;94299.50;;;8.54;100.00
12077;BME280;12420;42.676;23.262;2024-03-07T01:40:20;94280.03;;;8.46;100.00
12077;BME280;12420;42.676;23.262;2024-03-07T01:42:48;94303.97;;;8.57;100.00
12077;BME280;12420;42.676;23.262;2024-03-07T01:45:16;94305.72;;;8.60;100.00
12077;BME280;12420;42.676;23.262;2024-03-07T01:47:44;94298.03;;;8.53;100.00
12077;BME280;12420;42.676;23.262;2024-03-07T01:50:11;94310.84;;;8.69;100.00
12077;BME280;12420;42.676;23.262;2024-03-07T01:52:39;94321.66;;;8.67;100.00
12077;BME280;12420;42.676;23.262;2024-03-07T01:55:07;94327.47;;;8.20;100.00
12077;BME280;12420;42.676;23.262;2024-03-07T01:57:35;94320.47;;;8.19;100.00
12077;BME280;12420;42.676;23.262;2024-03-07T02:00:02;94325.84;;;8.31;100.00
12077;BME280;12420;42.676;23.262;2024-03-07T02:02:33;94319.88;;;8.26;100.00
12077;BME280;12420;42.676;23.262;2024-03-07T02:05:00;94317.06;;;8.32;100.00
12077;BME280;12420;42.676;23.262;2024-03-07T02:07:27;94318.25;;;8.37;100.00
12077;BME280;12420;42.676;23.262;2024-03-07T02:09:59;94313.78;;;8.34;100.00
12077;BME280;12420;42.676;23.262;2024-03-07T02:12:26;94309.22;;;8.36;100.00
12077;BME280;12420;42.676;23.262;2024-03-07T02:14:55;94293.72;;;8.33;100.00
12077;BME280;12420;42.676;23.262;2024-03-07T02:17:22;94286.91;;;8.40;100.00
12077;BME280;12420;42.676;23.262;2024-03-07T02:19:50;94281.84;;;8.44;100.00
12077;BME280;12420;42.676;23.262;2024-03-07T02:22:19;94295.13;;;8.45;100.00
12077;BME280;12420;42.676;23.262;2024-03-07T02:24:46;94284.94;;;8.35;100.00
12077;BME280;12420;42.676;23.262;2024-03-07T02:27:13;94296.78;;;8.30;100.00
12077;BME280;12420;42.676;23.262;2024-03-07T02:29:40;94298.56;;;8.27;100.00
12077;BME280;12420;42.676;23.262;2024-03-07T02:32:07;94302.88;;;8.22;100.00
12077;BME280;12420;42.676;23.262;2024-03-07T02:34:35;94310.69;;;8.18;100.00
12077;BME280;12420;42.676;23.262;2024-03-07T02:37:02;94315.81;;;8.09;100.00
12077;BME280;12420;42.676;23.262;2024-03-07T02:39:30;94317.97;;;7.97;100.00
12077;BME280;12420;42.676;23.262;2024-03-07T02:41:57;94306.69;;;7.95;100.00
12077;BME280;12420;42.676;23.262;2024-03-07T02:44:24;94305.91;;;8.00;100.00
12077;BME280;12420;42.676;23.262;2024-03-07T02:46:50;94308.41;;;7.98;100.00
12077;BME280;12420;42.676;23.262;2024-03-07T02:49:17;94302.34;;;8.05;100.00
12077;BME280;12420;42.676;23.262;2024-03-07T02:51:44;94303.00;;;8.11;100.00
12077;BME280;12420;42.676;23.262;2024-03-07T02:54:11;94302.50;;;8.13;100.00
12077;BME280;12420;42.676;23.262;2024-03-07T02:56:39;94308.16;;;8.20;100.00
12077;BME280;12420;42.676;23.262;2024-03-07T02:59:06;94308.97;;;8.15;100.00
12077;BME280;12420;42.676;23.262;2024-03-07T03:01:33;94318.47;;;8.20;100.00
12077;BME280;12420;42.676;23.262;2024-03-07T03:04:00;94317.75;;;8.14;100.00
12077;BME280;12420;42.676;23.262;2024-03-07T03:06:27;94305.81;;;8.05;100.00
12077;BME280;12420;42.676;23.262;2024-03-07T03:08:53;94308.06;;;8.07;100.00
12077;BME280;12420;42.676;23.262;2024-03-07T03:11:20;94311.47;;;7.94;100.00
12077;BME280;12420;42.676;23.262;2024-03-07T03:13:49;94311.00;;;7.90;100.00
12077;BME280;12420;42.676;23.262;2024-03-07T03:16:15;94302.91;;;7.73;100.00
12077;BME280;12420;42.676;23.262;2024-03-07T03:18:42;94325.75;;;7.93;100.00
12077;BME280;12420;42.676;23.262;2024-03-07T03:21:09;94326.91;;;8.03;100.00
12077;BME280;12420;42.676;23.262;2024-03-07T03:23:35;94331.50;;;7.95;100.00
12077;BME280;12420;42.676;23.262;2024-03-07T03:26:02;94330.22;;;7.96;100.00
12077;BME280;12420;42.676;23.262;2024-03-07T03:28:29;94325.59;;;7.85;100.00
12077;BME280;12420;42.676;23.262;2024-03-07T03:30:58;94324.84;;;7.85;100.00
12077;BME280;12420;42.676;23.262;2024-03-07T03:33:25;94341.03;;;7.94;100.00
12077;BME280;12420;42.676;23.262;2024-03-07T03:35:51;94340.69;;;8.03;100.00
12077;BME280;12420;42.676;23.262;2024-03-07T03:38:20;94331.59;;;8.08;100.00
12077;BME280;12420;42.676;23.262;2024-03-07T03:40:47;94322.19;;;7.98;100.00
12077;BME280;12420;42.676;23.262;2024-03-07T03:43:14;94311.75;;;7.91;100.00
12077;BME280;12420;42.676;23.262;2024-03-07T03:45:42;94311.00;;;7.90;100.00
12077;BME280;12420;42.676;23.262;2024-03-07T03:48:10;94314.72;;;7.93;100.00
12077;BME280;12420;42.676;23.262;2024-03-07T03:50:37;94317.72;;;7.95;100.00
12077;BME280;12420;42.676;23.262;2024-03-07T03:53:03;94310.44;;;7.97;100.00
12077;BME280;12420;42.676;23.262;2024-03-07T03:55:31;94303.66;;;7.98;100.00
12077;BME280;12420;42.676;23.262;2024-03-07T03:57:58;94312.84;;;8.07;100.00
12077;BME280;12420;42.676;23.262;2024-03-07T04:00:25;94311.28;;;8.11;100.00
12077;BME280;12420;42.676;23.262;2024-03-07T04:02:52;94312.56;;;8.10;100.00
12077;BME280;12420;42.676;23.262;2024-03-07T04:05:20;94305.56;;;8.09;100.00
12077;BME280;12420;42.676;23.262;2024-03-07T04:07:47;94317.38;;;8.04;100.00
12077;BME280;12420;42.676;23.262;2024-03-07T04:10:15;94316.41;;;8.01;100.00
12077;BME280;12420;42.676;23.262;2024-03-07T04:12:43;94316.13;;;8.05;100.00
12077;BME280;12420;42.676;23.262;2024-03-07T04:15:11;94326.09;;;8.08;100.00
12077;BME280;12420;42.676;23.262;2024-03-07T04:17:39;94323.09;;;8.06;100.00
12077;BME280;12420;42.676;23.262;2024-03-07T04:20:07;94306.88;;;8.02;100.00
12077;BME280;12420;42.676;23.262;2024-03-07T04:22:37;94318.53;;;8.14;100.00
12077;BME280;12420;42.676;23.262;2024-03-07T04:25:06;94322.09;;;8.09;100.00
12077;BME280;12420;42.676;23.262;2024-03-07T04:27:35;94320.31;;;8.12;100.00
12077;BME280;12420;42.676;23.262;2024-03-07T04:30:02;94329.31;;;8.12;100.00
12077;BME280;12420;42.676;23.262;2024-03-07T04:32:30;94324.53;;;8.13;100.00
12077;BME280;12420;42.676;23.262;2024-03-07T04:34:57;94330.06;;;8.13;100.00
12077;BME280;12420;42.676;23.262;2024-03-07T04:37:25;94308.53;;;8.11;100.00
12077;BME280;12420;42.676;23.262;2024-03-07T04:39:54;94311.91;;;8.23;100.00
12077;BME280;12420;42.676;23.262;2024-03-07T04:42:20;94313.22;;;8.16;100.00
12077;BME280;12420;42.676;23.262;2024-03-07T04:44:47;94317.41;;;8.23;100.00
12077;BME280;12420;42.676;23.262;2024-03-07T04:47:14;94310.47;;;8.16;100.00
12077;BME280;12420;42.676;23.262;2024-03-07T04:49:42;94297.06;;;8.07;100.00
12077;BME280;12420;42.676;23.262;2024-03-07T04:52:09;94322.09;;;8.09;100.00
12077;BME280;12420;42.676;23.262;2024-03-07T04:54:36;94312.69;;;7.99;100.00
12077;BME280;12420;42.676;23.262;2024-03-07T04:57:04;94324.16;;;8.03;100.00
12077;BME280;12420;42.676;23.262;2024-03-07T04:59:32;94339.72;;;8.00;100.00
12077;BME280;12420;42.676;23.262;2024-03-07T05:01:58;94336.34;;;7.89;100.00
12077;BME280;12420;42.676;23.262;2024-03-07T05:04:25;94337.66;;;7.82;100.00
12077;BME280;12420;42.676;23.262;2024-03-07T05:06:54;94345.38;;;7.83;100.00
12077;BME280;12420;42.676;23.262;2024-03-07T05:09:22;94321.97;;;7.71;100.00
12077;BME280;12420;42.676;23.262;2024-03-07T05:11:51;94334.72;;;7.74;100.00
12077;BME280;12420;42.676;23.262;2024-03-07T05:14:20;94329.81;;;7.31;100.00
12077;BME280;12420;42.676;23.262;2024-03-07T05:16:47;94315.59;;;6.91;100.00
12077;BME280;12420;42.676;23.262;2024-03-07T05:19:30;94334.06;;;6.96;100.00
12077;BME280;12420;42.676;23.262;2024-03-07T05:21:57;94343.78;;;6.56;100.00
12077;BME280;12420;42.676;23.262;2024-03-07T05:24:23;94333.84;;;6.47;100.00
12077;BME280;12420;42.676;23.262;2024-03-07T05:26:50;94347.59;;;6.47;100.00
12077;BME280;12420;42.676;23.262;2024-03-07T05:29:20;94350.59;;;6.49;100.00
12077;BME280;12420;42.676;23.262;2024-03-07T05:31:46;94358.78;;;6.61;100.00
12077;BME280;12420;42.676;23.262;2024-03-07T05:34:14;94351.47;;;6.69;100.00
12077;BME280;12420;42.676;23.262;2024-03-07T05:36:44;94354.53;;;6.60;100.00
12077;BME280;12420;42.676;23.262;2024-03-07T05:39:12;94358.09;;;6.43;100.00
12077;BME280;12420;42.676;23.262;2024-03-07T05:41:41;94356.38;;;6.40;100.00
12077;BME280;12420;42.676;23.262;2024-03-07T05:44:08;94360.06;;;6.48;100.00
12077;BME280;12420;42.676;23.262;2024-03-07T05:46:37;94366.03;;;6.58;100.00
12077;BME280;12420;42.676;23.262;2024-03-07T05:49:07;94359.00;;;6.68;100.00
12077;BME280;12420;42.676;23.262;2024-03-07T05:51:33;94363.75;;;6.68;100.00
12077;BME280;12420;42.676;23.262;2024-03-07T05:54:00;94363.25;;;6.64;100.00
12077;BME280;12420;42.676;23.262;2024-03-07T05:56:27;94357.22;;;6.71;100.00
12077;BME280;12420;42.676;23.262;2024-03-07T05:58:54;94333.56;;;6.57;100.00
12077;BME280;12420;42.676;23.262;2024-03-07T06:01:21;94373.88;;;6.90;100.00
12077;BME280;12420;42.676;23.262;2024-03-07T06:03:52;94379.06;;;7.05;100.00
12077;BME280;12420;42.676;23.262;2024-03-07T06:06:19;94372.53;;;7.08;100.00
12077;BME280;12420;42.676;23.262;2024-03-07T06:08:46;94377.97;;;7.19;100.00
12077;BME280;12420;42.676;23.262;2024-03-07T06:11:13;94376.94;;;7.22;100.00
12077;BME280;12420;42.676;23.262;2024-03-07T06:13:46;94386.66;;;7.29;100.00
12077;BME280;12420;42.676;23.262;2024-03-07T06:16:12;94395.69;;;7.24;100.00
12077;BME280;12420;42.676;23.262;2024-03-07T06:18:39;94402.09;;;7.37;100.00
12077;BME280;12420;42.676;23.262;2024-03-07T06:21:07;94386.91;;;7.31;100.00
12077;BME280;12420;42.676;23.262;2024-03-07T06:23:35;94401.78;;;7.47;100.00
12077;BME280;12420;42.676;23.262;2024-03-07T06:26:02;94356.03;;;7.08;100.00
12077;BME280;12420;42.676;23.262;2024-03-07T06:28:37;94398.34;;;7.41;100.00
12077;BME280;12420;42.676;23.262;2024-03-07T06:31:04;94403.28;;;7.48;100.00
12077;BME280;12420;42.676;23.262;2024-03-07T06:33:33;94395.31;;;7.44;100.00
12077;BME280;12420;42.676;23.262;2024-03-07T06:35:59;94392.25;;;7.48;100.00
12077;BME280;12420;42.676;23.262;2024-03-07T06:38:29;94386.56;;;7.40;100.00
12077;BME280;12420;42.676;23.262;2024-03-07T06:40:55;94400.03;;;7.49;100.00
12077;BME280;12420;42.676;23.262;2024-03-07T06:43:22;94397.75;;;7.53;100.00
12077;BME280;12420;42.676;23.262;2024-03-07T06:45:49;94398.25;;;7.52;100.00
12077;BME280;12420;42.676;23.262;2024-03-07T06:48:16;94398.00;;;7.50;100.00
12077;BME280;12420;42.676;23.262;2024-03-07T06:50:43;94397.50;;;7.51;100.00
12077;BME280;12420;42.676;23.262;2024-03-07T06:53:10;94407.53;;;7.49;100.00
12077;BME280;12420;42.676;23.262;2024-03-07T06:55:38;94410.00;;;7.52;100.00
12077;BME280;12420;42.676;23.262;2024-03-07T06:58:04;94413.75;;;7.55;100.00
12077;BME280;12420;42.676;23.262;2024-03-07T07:00:31;94386.81;;;7.42;100.00
12077;BME280;12420;42.676;23.262;2024-03-07T07:03:01;94387.63;;;7.31;100.00
12077;BME280;12420;42.676;23.262;2024-03-07T07:05:30;94399.59;;;7.39;100.00
12077;BME280;12420;42.676;23.262;2024-03-07T07:07:57;94391.81;;;7.44;100.00
12077;BME280;12420;42.676;23.262;2024-03-07T07:10:23;94383.81;;;7.40;100.00
12077;BME280;12420;42.676;23.262;2024-03-07T07:12:52;94378.69;;;7.25;100.00
12077;BME280;12420;42.676;23.262;2024-03-07T07:15:20;94382.13;;;7.31;100.00
12077;BME280;12420;42.676;23.262;2024-03-07T07:17:47;94387.72;;;7.20;100.00
12077;BME280;12420;42.676;23.262;2024-03-07T07:20:17;94396.63;;;7.32;100.00
12077;BME280;12420;42.676;23.262;2024-03-07T07:22:45;94391.88;;;7.32;100.00
12077;BME280;12420;42.676;23.262;2024-03-07T07:25:14;94370.88;;;7.29;100.00
12077;BME280;12420;42.676;23.262;2024-03-07T07:27:42;94390.59;;;7.39;100.00
12077;BME280;12420;42.676;23.262;2024-03-07T07:30:12;94391.25;;;7.51;100.00
12077;BME280;12420;42.676;23.262;2024-03-07T07:32:40;94390.69;;;7.58;100.00
12077;BME280;12420;42.676;23.262;2024-03-07T07:35:08;94389.81;;;7.74;100.00
12077;BME280;12420;42.676;23.262;2024-03-07T07:37:37;94392.44;;;7.86;100.00
12077;BME280;12420;42.676;23.262;2024-03-07T07:40:05;94388.28;;;7.79;100.00
12077;BME280;12420;42.676;23.262;2024-03-07T07:42:34;94369.66;;;7.85;100.00
12077;BME280;12420;42.676;23.262;2024-03-07T07:45:05;94387.31;;;8.01;100.00
12077;BME280;12420;42.676;23.262;2024-03-07T07:47:33;94385.13;;;7.94;100.00
12077;BME280;12420;42.676;23.262;2024-03-07T07:50:03;94382.81;;;7.98;100.00
12077;BME280;12420;42.676;23.262;2024-03-07T07:52:32;94387.03;;;8.04;100.00
12077;BME280;12420;42.676;23.262;2024-03-07T07:55:00;94380.00;;;8.03;100.00
12077;BME280;12420;42.676;23.262;2024-03-07T07:57:27;94386.06;;;8.02;100.00
12077;BME280;12420;42.676;23.262;2024-03-07T07:59:54;94385.88;;;7.94;100.00
12077;BME280;12420;42.676;23.262;2024-03-07T08:02:21;94389.03;;;8.04;100.00
12077;BME280;12420;42.676;23.262;2024-03-07T08:04:49;94376.41;;;7.90;100.00
12077;BME280;12420;42.676;23.262;2024-03-07T08:07:16;94403.75;;;8.12;100.00
12077;BME280;12420;42.676;23.262;2024-03-07T08:09:44;94393.94;;;8.17;100.00
12077;BME280;12420;42.676;23.262;2024-03-07T08:12:10;94399.63;;;8.24;100.00
12077;BME280;12420;42.676;23.262;2024-03-07T08:14:37;94400.81;;;8.29;100.00
12077;BME280;12420;42.676;23.262;2024-03-07T08:17:04;94397.53;;;8.31;100.00
12077;BME280;12420;42.676;23.262;2024-03-07T08:19:31;94402.81;;;8.29;100.00
12077;BME280;12420;42.676;23.262;2024-03-07T08:21:59;94416.00;;;8.41;100.00
12077;BME280;12420;42.676;23.262;2024-03-07T08:24:27;94414.91;;;8.50;100.00
12077;BME280;12420;42.676;23.262;2024-03-07T08:26:54;94423.13;;;8.56;100.00
12077;BME280;12420;42.676;23.262;2024-03-07T08:29:21;94425.50;;;8.65;100.00
12077;BME280;12420;42.676;23.262;2024-03-07T08:31:48;94443.09;;;8.62;100.00
12077;BME280;12420;42.676;23.262;2024-03-07T08:34:15;94426.31;;;8.60;100.00
12077;BME280;12420;42.676;23.262;2024-03-07T08:36:42;94430.22;;;8.70;100.00
12077;BME280;12420;42.676;23.262;2024-03-07T08:39:10;94432.94;;;8.76;100.00
12077;BME280;12420;42.676;23.262;2024-03-07T08:41:39;94439.28;;;8.89;100.00
12077;BME280;12420;42.676;23.262;2024-03-07T08:44:06;94426.13;;;8.77;100.00
12077;BME280;12420;42.676;23.262;2024-03-07T08:46:34;94437.88;;;8.83;100.00
12077;BME280;12420;42.676;23.262;2024-03-07T08:49:01;94449.13;;;8.85;100.00
12077;BME280;12420;42.676;23.262;2024-03-07T08:51:28;94450.47;;;8.78;100.00
12077;BME280;12420;42.676;23.262;2024-03-07T08:53:55;94446.06;;;8.88;100.00
12077;BME280;12420;42.676;23.262;2024-03-07T08:56:23;94439.25;;;8.71;100.00
12077;BME280;12420;42.676;23.262;2024-03-07T08:58:50;94454.31;;;8.69;100.00
12077;BME280;12420;42.676;23.262;2024-03-07T09:01:17;94456.72;;;8.79;100.00
12077;BME280;12420;42.676;23.262;2024-03-07T09:03:44;94455.44;;;8.80;100.00
12077;BME280;12420;42.676;23.262;2024-03-07T09:06:11;94457.47;;;8.79;100.00
12077;BME280;12420;42.676;23.262;2024-03-07T09:08:39;94449.84;;;8.66;100.00
12077;BME280;12420;42.676;23.262;2024-03-07T09:11:05;94452.75;;;8.74;100.00
12077;BME280;12420;42.676;23.262;2024-03-07T09:13:34;94456.56;;;8.71;100.00
12077;BME280;12420;42.676;23.262;2024-03-07T09:16:00;94457.81;;;8.70;100.00
12077;BME280;12420;42.676;23.262;2024-03-07T09:18:30;94458.41;;;8.63;100.00
12077;BME280;12420;42.676;23.262;2024-03-07T09:20:57;94460.94;;;8.61;100.00
12077;BME280;12420;42.676;23.262;2024-03-07T09:23:24;94467.75;;;8.79;100.00
12077;BME280;12420;42.676;23.262;2024-03-07T09:25:50;94468.66;;;8.87;100.00
12077;BME280;12420;42.676;23.262;2024-03-07T09:28:17;94459.94;;;8.83;100.00
12077;BME280;12420;42.676;23.262;2024-03-07T09:30:46;94456.59;;;8.90;100.00
12077;BME280;12420;42.676;23.262;2024-03-07T09:33:13;94461.75;;;8.99;100.00
12077;BME280;12420;42.676;23.262;2024-03-07T09:35:42;94468.16;;;9.07;100.00
12077;BME280;12420;42.676;23.262;2024-03-07T09:38:08;94468.41;;;9.09;100.00
12077;BME280;12420;42.676;23.262;2024-03-07T09:40:36;94478.81;;;8.98;100.00
12077;BME280;12420;42.676;23.262;2024-03-07T09:43:03;94476.53;;;9.02;100.00
12077;BME280;12420;42.676;23.262;2024-03-07T09:45:33;94468.31;;;8.96;100.00
12077;BME280;12420;42.676;23.262;2024-03-07T09:48:03;94464.03;;;8.95;100.00
12077;BME280;12420;42.676;23.262;2024-03-07T09:50:30;94460.47;;;9.00;100.00
12077;BME280;12420;42.676;23.262;2024-03-07T09:52:58;94446.81;;;8.89;100.00
12077;BME280;12420;42.676;23.262;2024-03-07T09:55:25;94449.50;;;8.76;100.00
12077;BME280;12420;42.676;23.262;2024-03-07T09:57:53;94449.25;;;8.74;100.00
12077;BME280;12420;42.676;23.262;2024-03-07T10:00:20;94434.56;;;8.65;100.00
12077;BME280;12420;42.676;23.262;2024-03-07T10:02:54;94442.41;;;8.80;100.00
12077;BME280;12420;42.676;23.262;2024-03-07T10:05:26;94437.50;;;8.92;100.00
12077;BME280;12420;42.676;23.262;2024-03-07T10:07:54;94443.47;;;8.96;100.00
12077;BME280;12420;42.676;23.262;2024-03-07T10:10:21;94435.63;;;9.00;100.00
12077;BME280;12420;42.676;23.262;2024-03-07T10:12:48;94431.69;;;8.96;100.00
12077;BME280;12420;42.676;23.262;2024-03-07T10:15:15;94445.94;;;9.00;100.00
12077;BME280;12420;42.676;23.262;2024-03-07T10:17:42;94427.16;;;8.98;100.00
12077;BME280;12420;42.676;23.262;2024-03-07T10:20:12;94426.63;;;9.19;100.00
12077;BME280;12420;42.676;23.262;2024-03-07T10:22:41;94414.75;;;8.86;100.00
12077;BME280;12420;42.676;23.262;2024-03-07T10:25:08;94411.47;;;9.06;100.00
12077;BME280;12420;42.676;23.262;2024-03-07T10:27:36;94427.44;;;9.32;100.00
12077;BME280;12420;42.676;23.262;2024-03-07T10:30:04;94428.84;;;9.39;100.00
12077;BME280;12420;42.676;23.262;2024-03-07T10:32:33;94427.34;;;9.38;100.00
12077;BME280;12420;42.676;23.262;2024-03-07T10:35:00;94427.94;;;9.31;100.00
12077;BME280;12420;42.676;23.262;2024-03-07T10:37:28;94430.56;;;9.23;100.00
12077;BME280;12420;42.676;23.262;2024-03-07T10:39:57;94414.66;;;9.10;100.00
12077;BME280;12420;42.676;23.262;2024-03-07T10:42:27;94422.22;;;8.91;100.00
12077;BME280;12420;42.676;23.262;2024-03-07T10:45:03;94424.38;;;9.17;100.00
12077;BME280;12420;42.676;23.262;2024-03-07T10:47:31;94426.09;;;9.01;100.00
12077;BME280;12420;42.676;23.262;2024-03-07T10:50:07;94426.16;;;9.15;100.00
12077;BME280;12420;42.676;23.262;2024-03-07T10:52:45;94422.06;;;9.02;100.00
12077;BME280;12420;42.676;23.262;2024-03-07T10:55:23;94425.72;;;9.10;100.00
12077;BME280;12420;42.676;23.262;2024-03-07T10:58:02;94417.06;;;9.20;100.00
12077;BME280;12420;42.676;23.262;2024-03-07T11:00:30;94411.16;;;9.29;100.00
12077;BME280;12420;42.676;23.262;2024-03-07T11:03:02;94421.69;;;9.30;100.00
12077;BME280;12420;42.676;23.262;2024-03-07T11:05:33;94417.72;;;9.26;100.00
12077;BME280;12420;42.676;23.262;2024-03-07T11:08:01;94403.91;;;9.26;100.00
12077;BME280;12420;42.676;23.262;2024-03-07T11:10:38;94406.75;;;9.39;100.00
12077;BME280;12420;42.676;23.262;2024-03-07T11:13:06;94408.69;;;9.44;100.00
12077;BME280;12420;42.676;23.262;2024-03-07T11:15:35;94388.69;;;9.38;100.00
12077;BME280;12420;42.676;23.262;2024-03-07T11:18:03;94384.53;;;9.31;100.00
12077;BME280;12420;42.676;23.262;2024-03-07T11:20:35;94408.25;;;9.40;100.00
12077;BME280;12420;42.676;23.262;2024-03-07T11:23:24;94414.41;;;9.46;100.00
12077;BME280;12420;42.676;23.262;2024-03-07T11:26:01;94410.34;;;9.34;100.00
12077;BME280;12420;42.676;23.262;2024-03-07T11:28:29;94393.97;;;9.36;100.00
12077;BME280;12420;42.676;23.262;2024-03-07T11:31:07;94398.66;;;9.41;100.00
12077;BME280;12420;42.676;23.262;2024-03-07T11:33:37;94403.03;;;9.37;100.00
12077;BME280;12420;42.676;23.262;2024-03-07T11:36:06;94392.50;;;9.35;100.00
12077;BME280;12420;42.676;23.262;2024-03-07T11:38:33;94400.72;;;9.54;100.00
12077;BME280;12420;42.676;23.262;2024-03-07T11:41:02;94390.38;;;9.41;100.00
12077;BME280;12420;42.676;23.262;2024-03-07T11:43:31;94393.69;;;9.21;100.00
12077;BME280;12420;42.676;23.262;2024-03-07T11:45:59;94382.88;;;9.23;100.00
12077;BME280;12420;42.676;23.262;2024-03-07T11:48:26;94393.78;;;9.34;100.00
12077;BME280;12420;42.676;23.262;2024-03-07T11:50:53;94387.97;;;9.19;100.00
12077;BME280;12420;42.676;23.262;2024-03-07T11:53:20;94390.94;;;9.02;100.00
12077;BME280;12420;42.676;23.262;2024-03-07T11:55:48;94387.97;;;9.19;100.00
12077;BME280;12420;42.676;23.262;2024-03-07T11:58:18;94382.44;;;9.19;100.00
12077;BME280;12420;42.676;23.262;2024-03-07T12:00:48;94378.34;;;9.06;100.00
12077;BME280;12420;42.676;23.262;2024-03-07T12:03:17;94379.00;;;9.12;100.00
12077;BME280;12420;42.676;23.262;2024-03-07T12:05:46;94372.38;;;9.02;100.00
12077;BME280;12420;42.676;23.262;2024-03-07T12:08:13;94364.16;;;8.97;100.00
12077;BME280;12420;42.676;23.262;2024-03-07T12:10:42;94363.22;;;8.75;100.00
12077;BME280;12420;42.676;23.262;2024-03-07T12:13:09;94373.63;;;8.63;100.00
12077;BME280;12420;42.676;23.262;2024-03-07T12:15:39;94378.28;;;8.93;100.00
12077;BME280;12420;42.676;23.262;2024-03-07T12:18:06;94380.97;;;8.99;100.00
12077;BME280;12420;42.676;23.262;2024-03-07T12:20:36;94383.63;;;9.04;100.00
12077;BME280;12420;42.676;23.262;2024-03-07T12:23:04;94379.09;;;8.88;100.00
12077;BME280;12420;42.676;23.262;2024-03-07T12:25:34;94385.28;;;8.94;100.00
12077;BME280;12420;42.676;23.262;2024-03-07T12:28:06;94388.78;;;9.13;100.00
12077;BME280;12420;42.676;23.262;2024-03-07T12:30:49;94378.41;;;9.20;100.00
12077;BME280;12420;42.676;23.262;2024-03-07T12:33:18;94385.25;;;9.32;100.00
12077;BME280;12420;42.676;23.262;2024-03-07T12:35:45;94378.78;;;9.29;100.00
12077;BME280;12420;42.676;23.262;2024-03-07T12:38:13;94362.16;;;9.16;100.00
12077;BME280;12420;42.676;23.262;2024-03-07T12:40:42;94364.53;;;9.06;100.00
12077;BME280;12420;42.676;23.262;2024-03-07T12:43:16;94370.66;;;8.99;100.00
12077;BME280;12420;42.676;23.262;2024-03-07T12:45:44;94370.06;;;9.06;100.00
12077;BME280;12420;42.676;23.262;2024-03-07T12:48:13;94369.75;;;9.10;100.00
12077;BME280;12420;42.676;23.262;2024-03-07T12:50:42;94373.53;;;9.26;100.00
12077;BME280;12420;42.676;23.262;2024-03-07T12:53:12;94382.28;;;9.30;100.00
12077;BME280;12420;42.676;23.262;2024-03-07T12:55:43;94370.78;;;9.26;100.00